Skip Navigation Links Skip Navigation Links

Current Weather

Waterloo Well, Ont.

For information only: do not use for flight planning or navigation.
Latest weather
Observation time Monday, October 18, 2021 4:00 PM EDT
Local time Monday, October 18, 2021 4:14 PM EDT
Flight conditions Visual Meteorological Conditions
Winds
Wind direction Northwest (320°)
Wind speed 17 mph
Wind gusting to 25 mph
Visibility 9 mi.
Sky condition
Ceiling unlimited
Sky clear
Temperature 54°F
Dewpoint 32°F
Altimeter 30.01 in.Hg
Derived measurements
Relative humidity 44%
Density altitude -46 ft.
Sea-level pressure 30.03 in.Hg
Remarks
Fully automated report.
METAR CYKF 182000Z AUTO 32015G22KT 9SM CLR 12/M00 A3001 RMK SLP169

Settings

Location code

InnerDrive.Weather 4.0.6770.0 Release CLR 4.0.30319.42000
Copyright ©2018 Inner Drive Technology. All rights reserved. Portions Copyright ©1986-2018 David Braverman.

Find weather

Site navigation


Skip Navigation Links

Place info

Page info

PayPal - The safer, easier way to pay online!

Return home.

Copyright ©2021 Inner Drive Technology. Purveyors of fine, hand-crafted computer software. Page printed 2021-10-18T20:14:59 UTC.